sensor_id;sensor_type;location;lat;lon;timestamp;pressure;altitude;pressure_sealevel;temperature;humidity
76128;BME280;64873;50.102;14.434;2024-01-07T00:00:12;98750.06;;;1.50;82.53
76128;BME280;64873;50.102;14.434;2024-01-07T00:02:40;98743.84;;;1.43;81.97
76128;BME280;64873;50.102;14.434;2024-01-07T00:05:05;98756.69;;;1.38;82.76
76128;BME280;64873;50.102;14.434;2024-01-07T00:07:31;98735.69;;;1.22;82.00
76128;BME280;64873;50.102;14.434;2024-01-07T00:09:56;98749.16;;;1.27;82.04
76128;BME280;64873;50.102;14.434;2024-01-07T00:12:21;98753.97;;;1.23;82.93
76128;BME280;64873;50.102;14.434;2024-01-07T00:14:47;98756.56;;;1.31;81.93
76128;BME280;64873;50.102;14.434;2024-01-07T00:17:12;98746.44;;;1.12;81.59
76128;BME280;64873;50.102;14.434;2024-01-07T00:19:38;98727.56;;;0.92;82.65
76128;BME280;64873;50.102;14.434;2024-01-07T00:22:04;98751.06;;;1.02;82.38
76128;BME280;64873;50.102;14.434;2024-01-07T00:24:30;98757.31;;;0.93;82.73
76128;BME280;64873;50.102;14.434;2024-01-07T00:26:55;98766.19;;;0.92;82.58
76128;BME280;64873;50.102;14.434;2024-01-07T00:29:21;98758.66;;;0.89;82.54
76128;BME280;64873;50.102;14.434;2024-01-07T00:31:46;98741.59;;;0.76;82.27
76128;BME280;64873;50.102;14.434;2024-01-07T00:34:12;98766.56;;;0.89;82.68
76128;BME280;64873;50.102;14.434;2024-01-07T00:36:37;98768.50;;;0.87;82.89
76128;BME280;64873;50.102;14.434;2024-01-07T00:39:03;98739.44;;;0.64;82.55
76128;BME280;64873;50.102;14.434;2024-01-07T00:41:28;98769.19;;;0.80;82.51
76128;BME280;64873;50.102;14.434;2024-01-07T00:43:55;98778.72;;;0.82;82.83
76128;BME280;64873;50.102;14.434;2024-01-07T00:46:20;98776.09;;;0.73;82.67
76128;BME280;64873;50.102;14.434;2024-01-07T00:48:46;98773.78;;;0.70;83.07
76128;BME280;64873;50.102;14.434;2024-01-07T00:51:11;98774.13;;;0.75;82.44
76128;BME280;64873;50.102;14.434;2024-01-07T00:53:37;98781.19;;;0.75;82.42
76128;BME280;64873;50.102;14.434;2024-01-07T00:56:02;98758.69;;;0.56;82.35
76128;BME280;64873;50.102;14.434;2024-01-07T00:58:28;98780.06;;;0.61;82.76
76128;BME280;64873;50.102;14.434;2024-01-07T01:00:53;98795.66;;;0.71;82.40
76128;BME280;64873;50.102;14.434;2024-01-07T01:03:19;98777.75;;;0.58;82.95
76128;BME280;64873;50.102;14.434;2024-01-07T01:05:45;98793.19;;;0.61;81.89
76128;BME280;64873;50.102;14.434;2024-01-07T01:08:10;98779.41;;;0.51;82.14
76128;BME280;64873;50.102;14.434;2024-01-07T01:10:37;98790.56;;;0.61;81.63
76128;BME280;64873;50.102;14.434;2024-01-07T01:13:03;98807.81;;;0.72;81.83
76128;BME280;64873;50.102;14.434;2024-01-07T01:15:28;98798.09;;;0.64;81.47
76128;BME280;64873;50.102;14.434;2024-01-07T01:17:54;98804.38;;;0.71;81.45
76128;BME280;64873;50.102;14.434;2024-01-07T01:20:19;98775.78;;;0.60;81.83
76128;BME280;64873;50.102;14.434;2024-01-07T01:22:45;98805.69;;;0.67;81.26
76128;BME280;64873;50.102;14.434;2024-01-07T01:25:10;98800.09;;;0.62;81.47
76128;BME280;64873;50.102;14.434;2024-01-07T01:27:36;98812.09;;;0.65;81.49
76128;BME280;64873;50.102;14.434;2024-01-07T01:30:02;98779.72;;;0.40;81.40
76128;BME280;64873;50.102;14.434;2024-01-07T01:32:27;98802.06;;;0.52;81.95
76128;BME280;64873;50.102;14.434;2024-01-07T01:34:53;98799.44;;;0.44;81.05
76128;BME280;64873;50.102;14.434;2024-01-07T01:37:18;98796.16;;;0.50;81.64
76128;BME280;64873;50.102;14.434;2024-01-07T01:39:43;98801.25;;;0.68;81.57
76128;BME280;64873;50.102;14.434;2024-01-07T01:42:09;98785.13;;;0.63;80.80
76128;BME280;64873;50.102;14.434;2024-01-07T01:44:34;98809.47;;;0.57;81.13
76128;BME280;64873;50.102;14.434;2024-01-07T01:47:00;98789.59;;;0.54;82.02
76128;BME280;64873;50.102;14.434;2024-01-07T01:49:27;98811.91;;;0.58;81.49
76128;BME280;64873;50.102;14.434;2024-01-07T01:51:53;98791.22;;;0.39;81.70
76128;BME280;64873;50.102;14.434;2024-01-07T01:54:19;98814.22;;;0.61;81.27
76128;BME280;64873;50.102;14.434;2024-01-07T01:56:45;98809.31;;;0.50;80.38
76128;BME280;64873;50.102;14.434;2024-01-07T01:59:11;98809.97;;;0.44;80.34
76128;BME280;64873;50.102;14.434;2024-01-07T02:01:38;98815.06;;;0.53;80.33
76128;BME280;64873;50.102;14.434;2024-01-07T02:04:03;98819.13;;;0.40;79.92
76128;BME280;64873;50.102;14.434;2024-01-07T02:06:29;98822.44;;;0.42;79.81
76128;BME280;64873;50.102;14.434;2024-01-07T02:08:55;98814.88;;;0.47;79.08
76128;BME280;64873;50.102;14.434;2024-01-07T02:11:22;98798.44;;;0.29;78.68
76128;BME280;64873;50.102;14.434;2024-01-07T02:13:48;98806.50;;;0.19;79.94
76128;BME280;64873;50.102;14.434;2024-01-07T02:16:14;98823.75;;;0.30;79.64
76128;BME280;64873;50.102;14.434;2024-01-07T02:18:44;98817.16;;;0.25;78.98
76128;BME280;64873;50.102;14.434;2024-01-07T02:21:10;98822.09;;;0.29;78.71
76128;BME280;64873;50.102;14.434;2024-01-07T02:23:36;98806.63;;;0.09;78.74
76128;BME280;64873;50.102;14.434;2024-01-07T02:26:02;98833.56;;;0.19;78.58
76128;BME280;64873;50.102;14.434;2024-01-07T02:28:28;98823.41;;;0.24;78.26
76128;BME280;64873;50.102;14.434;2024-01-07T02:30:53;98828.00;;;0.31;78.38
76128;BME280;64873;50.102;14.434;2024-01-07T02:33:19;98838.19;;;0.25;78.72
76128;BME280;64873;50.102;14.434;2024-01-07T02:35:44;98812.34;;;0.05;78.62
76128;BME280;64873;50.102;14.434;2024-01-07T02:38:10;98841.13;;;0.14;79.36
76128;BME280;64873;50.102;14.434;2024-01-07T02:40:35;98834.88;;;0.07;78.80
76128;BME280;64873;50.102;14.434;2024-01-07T02:43:00;98846.88;;;0.18;79.76
76128;BME280;64873;50.102;14.434;2024-01-07T02:45:26;98840.63;;;0.19;78.91
76128;BME280;64873;50.102;14.434;2024-01-07T02:47:51;98837.84;;;0.29;79.26
76128;BME280;64873;50.102;14.434;2024-01-07T02:50:17;98819.09;;;0.07;78.09
76128;BME280;64873;50.102;14.434;2024-01-07T02:52:42;98826.16;;;0.07;80.94
76128;BME280;64873;50.102;14.434;2024-01-07T02:55:08;98852.13;;;0.18;80.35
76128;BME280;64873;50.102;14.434;2024-01-07T02:57:34;98850.03;;;0.30;81.04
76128;BME280;64873;50.102;14.434;2024-01-07T03:00:00;98843.91;;;0.13;81.45
76128;BME280;64873;50.102;14.434;2024-01-07T03:02:26;98849.66;;;0.08;80.91
76128;BME280;64873;50.102;14.434;2024-01-07T03:04:52;98829.91;;;-0.04;81.27
76128;BME280;64873;50.102;14.434;2024-01-07T03:07:17;98838.09;;;-0.07;82.42
76128;BME280;64873;50.102;14.434;2024-01-07T03:09:43;98840.38;;;-0.12;82.07
76128;BME280;64873;50.102;14.434;2024-01-07T03:12:08;98822.63;;;-0.27;82.17
76128;BME280;64873;50.102;14.434;2024-01-07T03:14:33;98843.97;;;-0.13;82.74
76128;BME280;64873;50.102;14.434;2024-01-07T03:16:59;98823.13;;;-0.23;82.41
76128;BME280;64873;50.102;14.434;2024-01-07T03:19:24;98844.34;;;-0.08;82.62
76128;BME280;64873;50.102;14.434;2024-01-07T03:21:50;98848.28;;;-0.04;81.36
76128;BME280;64873;50.102;14.434;2024-01-07T03:24:15;98854.66;;;-0.15;80.99
76128;BME280;64873;50.102;14.434;2024-01-07T03:26:40;98843.00;;;-0.12;79.97
76128;BME280;64873;50.102;14.434;2024-01-07T03:29:06;98845.13;;;-0.16;79.96
76128;BME280;64873;50.102;14.434;2024-01-07T03:31:31;98843.97;;;-0.13;80.19
76128;BME280;64873;50.102;14.434;2024-01-07T03:33:57;98851.38;;;-0.17;80.12
76128;BME280;64873;50.102;14.434;2024-01-07T03:36:22;98858.72;;;-0.20;79.64
76128;BME280;64873;50.102;14.434;2024-01-07T03:38:48;98856.94;;;-0.20;79.82
76128;BME280;64873;50.102;14.434;2024-01-07T03:41:17;98855.47;;;-0.22;79.87
76128;BME280;64873;50.102;14.434;2024-01-07T03:43:49;98856.75;;;-0.18;80.33
76128;BME280;64873;50.102;14.434;2024-01-07T03:46:15;98866.97;;;-0.15;79.80
76128;BME280;64873;50.102;14.434;2024-01-07T03:48:44;98869.25;;;-0.20;79.18
76128;BME280;64873;50.102;14.434;2024-01-07T03:51:09;98871.66;;;-0.35;78.77
76128;BME280;64873;50.102;14.434;2024-01-07T03:53:34;98848.41;;;-0.56;79.45
76128;BME280;64873;50.102;14.434;2024-01-07T03:56:00;98847.06;;;-0.60;80.13
76128;BME280;64873;50.102;14.434;2024-01-07T03:58:25;98868.78;;;-0.50;81.16
76128;BME280;64873;50.102;14.434;2024-01-07T04:00:51;98847.22;;;-0.62;79.90
76128;BME280;64873;50.102;14.434;2024-01-07T04:03:16;98869.16;;;-0.37;79.95
76128;BME280;64873;50.102;14.434;2024-01-07T04:05:42;98870.16;;;-0.38;79.51
76128;BME280;64873;50.102;14.434;2024-01-07T04:08:11;98851.38;;;-0.51;79.16
76128;BME280;64873;50.102;14.434;2024-01-07T04:10:37;98880.66;;;-0.38;79.64
76128;BME280;64873;50.102;14.434;2024-01-07T04:13:03;98880.63;;;-0.46;78.60
76128;BME280;64873;50.102;14.434;2024-01-07T04:15:29;98876.19;;;-0.45;79.06
76128;BME280;64873;50.102;14.434;2024-01-07T04:17:55;98885.38;;;-0.41;77.91
76128;BME280;64873;50.102;14.434;2024-01-07T04:20:20;98841.16;;;-0.62;78.45
76128;BME280;64873;50.102;14.434;2024-01-07T04:22:45;98885.53;;;-0.43;78.39
76128;BME280;64873;50.102;14.434;2024-01-07T04:25:11;98890.22;;;-0.55;78.25
76128;BME280;64873;50.102;14.434;2024-01-07T04:27:37;98879.28;;;-0.50;78.44
76128;BME280;64873;50.102;14.434;2024-01-07T04:30:04;98890.69;;;-0.59;78.25
76128;BME280;64873;50.102;14.434;2024-01-07T04:32:30;98894.81;;;-0.57;78.02
76128;BME280;64873;50.102;14.434;2024-01-07T04:34:55;98897.06;;;-0.62;78.16
76128;BME280;64873;50.102;14.434;2024-01-07T04:37:25;98882.56;;;-0.74;78.20
76128;BME280;64873;50.102;14.434;2024-01-07T04:39:51;98891.63;;;-0.68;78.74
76128;BME280;64873;50.102;14.434;2024-01-07T04:42:17;98885.56;;;-0.69;78.62
76128;BME280;64873;50.102;14.434;2024-01-07T04:44:43;98888.84;;;-0.67;78.89
76128;BME280;64873;50.102;14.434;2024-01-07T04:49:53;98909.75;;;-0.57;78.65
76128;BME280;64873;50.102;14.434;2024-01-07T04:52:19;98921.97;;;-0.66;78.38
76128;BME280;64873;50.102;14.434;2024-01-07T04:54:45;98917.88;;;-0.68;79.27
76128;BME280;64873;50.102;14.434;2024-01-07T04:57:10;98910.00;;;-0.68;79.40
76128;BME280;64873;50.102;14.434;2024-01-07T04:59:36;98905.00;;;-0.79;79.14
76128;BME280;64873;50.102;14.434;2024-01-07T05:02:01;98925.06;;;-0.70;79.53
76128;BME280;64873;50.102;14.434;2024-01-07T05:04:26;98924.03;;;-0.51;79.71
76128;BME280;64873;50.102;14.434;2024-01-07T05:06:52;98906.34;;;-0.75;79.43
76128;BME280;64873;50.102;14.434;2024-01-07T05:09:17;98932.25;;;-0.72;78.64
76128;BME280;64873;50.102;14.434;2024-01-07T05:11:43;98920.13;;;-0.73;79.43
76128;BME280;64873;50.102;14.434;2024-01-07T05:14:08;98925.38;;;-0.73;79.21
76128;BME280;64873;50.102;14.434;2024-01-07T05:16:33;98925.44;;;-0.83;79.77
76128;BME280;64873;50.102;14.434;2024-01-07T05:18:59;98910.81;;;-0.94;79.36
76128;BME280;64873;50.102;14.434;2024-01-07T05:21:24;98930.50;;;-0.90;80.26
76128;BME280;64873;50.102;14.434;2024-01-07T05:23:50;98943.69;;;-0.82;79.53
76128;BME280;64873;50.102;14.434;2024-01-07T05:26:15;98937.28;;;-0.79;79.71
76128;BME280;64873;50.102;14.434;2024-01-07T05:28:40;98944.50;;;-0.81;79.73
76128;BME280;64873;50.102;14.434;2024-01-07T05:31:17;98959.41;;;-0.82;80.52
76128;BME280;64873;50.102;14.434;2024-01-07T05:33:43;98938.81;;;-1.12;80.01
76128;BME280;64873;50.102;14.434;2024-01-07T05:36:09;98946.78;;;-1.04;79.94
76128;BME280;64873;50.102;14.434;2024-01-07T05:38:34;98958.97;;;-0.95;80.96
76128;BME280;64873;50.102;14.434;2024-01-07T05:41:00;98975.00;;;-0.98;80.18
76128;BME280;64873;50.102;14.434;2024-01-07T05:43:25;98941.53;;;-1.22;80.62
76128;BME280;64873;50.102;14.434;2024-01-07T05:45:50;98975.91;;;-1.07;80.82
76128;BME280;64873;50.102;14.434;2024-01-07T05:48:16;98971.47;;;-1.07;80.74
76128;BME280;64873;50.102;14.434;2024-01-07T05:50:41;98975.19;;;-1.17;81.32
76128;BME280;64873;50.102;14.434;2024-01-07T05:53:07;98972.91;;;-1.12;81.74
76128;BME280;64873;50.102;14.434;2024-01-07T05:55:32;98972.25;;;-1.14;82.19
76128;BME280;64873;50.102;14.434;2024-01-07T05:57:57;98975.22;;;-1.27;82.00
76128;BME280;64873;50.102;14.434;2024-01-07T06:00:23;98985.63;;;-1.35;83.16
76128;BME280;64873;50.102;14.434;2024-01-07T06:02:48;98972.75;;;-1.46;83.24
76128;BME280;64873;50.102;14.434;2024-01-07T06:05:14;98973.78;;;-1.57;83.59
76128;BME280;64873;50.102;14.434;2024-01-07T06:07:39;98991.31;;;-1.40;84.79
76128;BME280;64873;50.102;14.434;2024-01-07T06:10:05;98993.13;;;-1.40;84.31
76128;BME280;64873;50.102;14.434;2024-01-07T06:12:31;98995.44;;;-1.37;85.20
76128;BME280;64873;50.102;14.434;2024-01-07T06:14:57;98985.50;;;-1.33;85.18
76128;BME280;64873;50.102;14.434;2024-01-07T06:17:22;99004.22;;;-1.28;84.95
76128;BME280;64873;50.102;14.434;2024-01-07T06:19:47;99010.19;;;-1.18;85.26
76128;BME280;64873;50.102;14.434;2024-01-07T06:22:13;99016.63;;;-1.30;84.48
76128;BME280;64873;50.102;14.434;2024-01-07T06:24:38;99018.59;;;-1.32;84.80
76128;BME280;64873;50.102;14.434;2024-01-07T06:27:04;99012.19;;;-1.48;83.40
76128;BME280;64873;50.102;14.434;2024-01-07T06:29:29;98991.41;;;-1.59;83.23
76128;BME280;64873;50.102;14.434;2024-01-07T06:31:55;99001.03;;;-1.50;84.07
76128;BME280;64873;50.102;14.434;2024-01-07T06:34:20;99031.88;;;-1.44;84.64
76128;BME280;64873;50.102;14.434;2024-01-07T06:36:46;99033.25;;;-1.40;84.65
76128;BME280;64873;50.102;14.434;2024-01-07T06:39:12;99026.25;;;-1.49;83.84
76128;BME280;64873;50.102;14.434;2024-01-07T06:41:38;99046.03;;;-1.37;83.68
76128;BME280;64873;50.102;14.434;2024-01-07T06:44:03;99041.81;;;-1.47;83.93
76128;BME280;64873;50.102;14.434;2024-01-07T06:46:29;99028.66;;;-1.65;83.59
76128;BME280;64873;50.102;14.434;2024-01-07T06:48:54;99045.47;;;-1.58;84.81
76128;BME280;64873;50.102;14.434;2024-01-07T06:51:20;99068.47;;;-1.52;84.04
76128;BME280;64873;50.102;14.434;2024-01-07T06:53:45;99033.34;;;-1.59;84.65
76128;BME280;64873;50.102;14.434;2024-01-07T06:56:10;99062.19;;;-1.41;85.04
76128;BME280;64873;50.102;14.434;2024-01-07T06:58:36;99071.59;;;-1.39;84.50
76128;BME280;64873;50.102;14.434;2024-01-07T07:01:01;99044.63;;;-1.58;84.26
76128;BME280;64873;50.102;14.434;2024-01-07T07:03:27;99075.63;;;-1.54;84.86
76128;BME280;64873;50.102;14.434;2024-01-07T07:05:53;99062.63;;;-1.73;84.10
76128;BME280;64873;50.102;14.434;2024-01-07T07:08:18;99078.44;;;-1.65;84.73
76128;BME280;64873;50.102;14.434;2024-01-07T07:10:44;99090.44;;;-1.63;84.68
76128;BME280;64873;50.102;14.434;2024-01-07T07:13:10;99057.53;;;-1.75;84.47
76128;BME280;64873;50.102;14.434;2024-01-07T07:15:36;99092.34;;;-1.55;84.91
76128;BME280;64873;50.102;14.434;2024-01-07T07:18:01;99095.34;;;-1.50;84.01
76128;BME280;64873;50.102;14.434;2024-01-07T07:20:26;99103.63;;;-1.54;83.32
76128;BME280;64873;50.102;14.434;2024-01-07T07:22:52;99107.47;;;-1.49;83.88
76128;BME280;64873;50.102;14.434;2024-01-07T07:25:18;99111.06;;;-1.50;82.99
76128;BME280;64873;50.102;14.434;2024-01-07T07:27:43;99119.91;;;-1.51;82.32
76128;BME280;64873;50.102;14.434;2024-01-07T07:30:09;99129.31;;;-1.58;82.17
76128;BME280;64873;50.102;14.434;2024-01-07T07:32:34;99111.25;;;-1.61;81.68
76128;BME280;64873;50.102;14.434;2024-01-07T07:35:00;99117.78;;;-1.38;82.61
76128;BME280;64873;50.102;14.434;2024-01-07T07:37:26;99120.31;;;-1.46;80.39
76128;BME280;64873;50.102;14.434;2024-01-07T07:39:51;99114.44;;;-1.57;79.96
76128;BME280;64873;50.102;14.434;2024-01-07T07:42:17;99120.97;;;-1.44;81.21
76128;BME280;64873;50.102;14.434;2024-01-07T07:44:42;99135.84;;;-1.35;80.75
76128;BME280;64873;50.102;14.434;2024-01-07T07:47:08;99137.94;;;-1.48;80.10
76128;BME280;64873;50.102;14.434;2024-01-07T07:49:37;99136.16;;;-1.47;80.13
76128;BME280;64873;50.102;14.434;2024-01-07T07:52:06;99133.69;;;-1.58;80.07
76128;BME280;64873;50.102;14.434;2024-01-07T07:54:31;99146.78;;;-1.49;80.41
76128;BME280;64873;50.102;14.434;2024-01-07T07:56:56;99135.31;;;-1.48;80.95
76128;BME280;64873;50.102;14.434;2024-01-07T07:59:22;99142.59;;;-1.32;81.28
76128;BME280;64873;50.102;14.434;2024-01-07T08:01:47;99139.41;;;-1.36;80.69
76128;BME280;64873;50.102;14.434;2024-01-07T08:04:13;99127.13;;;-1.63;79.43
76128;BME280;64873;50.102;14.434;2024-01-07T08:06:38;99150.66;;;-1.53;79.62
76128;BME280;64873;50.102;14.434;2024-01-07T08:09:03;99155.22;;;-1.55;79.58
76128;BME280;64873;50.102;14.434;2024-01-07T08:11:29;99159.78;;;-1.57;79.52
76128;BME280;64873;50.102;14.434;2024-01-07T08:13:55;99152.59;;;-1.55;79.04
76128;BME280;64873;50.102;14.434;2024-01-07T08:16:20;99145.88;;;-1.67;79.09
76128;BME280;64873;50.102;14.434;2024-01-07T08:18:46;99169.41;;;-1.48;79.49
76128;BME280;64873;50.102;14.434;2024-01-07T08:21:11;99168.72;;;-1.50;78.76
76128;BME280;64873;50.102;14.434;2024-01-07T08:23:37;99172.72;;;-1.46;79.51
76128;BME280;64873;50.102;14.434;2024-01-07T08:26:02;99150.38;;;-1.50;78.51
76128;BME280;64873;50.102;14.434;2024-01-07T08:28:28;99182.31;;;-1.27;78.73
76128;BME280;64873;50.102;14.434;2024-01-07T08:30:53;99178.88;;;-1.27;78.49
76128;BME280;64873;50.102;14.434;2024-01-07T08:33:19;99182.22;;;-1.45;78.03
76128;BME280;64873;50.102;14.434;2024-01-07T08:35:44;99200.41;;;-1.33;78.18
76128;BME280;64873;50.102;14.434;2024-01-07T08:38:10;99188.56;;;-1.47;78.01
76128;BME280;64873;50.102;14.434;2024-01-07T08:40:35;99171.00;;;-1.74;77.30
76128;BME280;64873;50.102;14.434;2024-01-07T08:43:02;99203.19;;;-1.45;77.57
76128;BME280;64873;50.102;14.434;2024-01-07T08:45:27;99201.41;;;-1.54;77.58
76128;BME280;64873;50.102;14.434;2024-01-07T08:47:53;99211.72;;;-1.43;78.63
76128;BME280;64873;50.102;14.434;2024-01-07T08:50:18;99205.66;;;-1.53;77.82
76128;BME280;64873;50.102;14.434;2024-01-07T08:52:43;99220.72;;;-1.55;77.25
76128;BME280;64873;50.102;14.434;2024-01-07T08:55:09;99221.41;;;-1.53;77.37
76128;BME280;64873;50.102;14.434;2024-01-07T08:57:36;99193.53;;;-1.54;76.36
76128;BME280;64873;50.102;14.434;2024-01-07T09:00:02;99232.69;;;-1.33;76.65
76128;BME280;64873;50.102;14.434;2024-01-07T09:02:27;99220.28;;;-1.41;77.01
76128;BME280;64873;50.102;14.434;2024-01-07T09:04:53;99223.59;;;-1.39;76.80
76128;BME280;64873;50.102;14.434;2024-01-07T09:07:18;99212.81;;;-1.36;76.87
76128;BME280;64873;50.102;14.434;2024-01-07T09:09:44;99206.53;;;-1.52;76.43
76128;BME280;64873;50.102;14.434;2024-01-07T09:12:10;99205.66;;;-1.53;77.33
76128;BME280;64873;50.102;14.434;2024-01-07T09:14:37;99232.59;;;-1.51;77.19
76128;BME280;64873;50.102;14.434;2024-01-07T09:17:02;99233.94;;;-1.47;76.79
76128;BME280;64873;50.102;14.434;2024-01-07T09:19:28;99235.47;;;-1.54;75.88
76128;BME280;64873;50.102;14.434;2024-01-07T09:21:53;99208.19;;;-1.61;76.96
76128;BME280;64873;50.102;14.434;2024-01-07T09:24:19;99239.16;;;-1.47;76.27
76128;BME280;64873;50.102;14.434;2024-01-07T09:26:44;99229.97;;;-1.51;75.71
76128;BME280;64873;50.102;14.434;2024-01-07T09:29:09;99233.50;;;-1.42;75.84
76128;BME280;64873;50.102;14.434;2024-01-07T09:31:35;99238.50;;;-1.49;75.54
76128;BME280;64873;50.102;14.434;2024-01-07T09:34:01;99252.81;;;-1.33;75.29
76128;BME280;64873;50.102;14.434;2024-01-07T09:36:27;99242.34;;;-1.33;75.36
76128;BME280;64873;50.102;14.434;2024-01-07T09:38:52;99245.38;;;-1.38;75.03
76128;BME280;64873;50.102;14.434;2024-01-07T09:41:19;99261.94;;;-1.38;74.63
76128;BME280;64873;50.102;14.434;2024-01-07T09:43:44;99254.88;;;-1.27;74.55
76128;BME280;64873;50.102;14.434;2024-01-07T09:46:10;99251.19;;;-1.35;74.27
76128;BME280;64873;50.102;14.434;2024-01-07T09:48:35;99235.44;;;-1.35;73.98
76128;BME280;64873;50.102;14.434;2024-01-07T09:51:01;99254.16;;;-1.29;74.66
76128;BME280;64873;50.102;14.434;2024-01-07T09:53:30;99234.91;;;-1.48;74.35
76128;BME280;64873;50.102;14.434;2024-01-07T09:56:12;99253.22;;;-1.28;74.41
76128;BME280;64873;50.102;14.434;2024-01-07T09:58:41;99253.09;;;-1.37;73.21
76128;BME280;64873;50.102;14.434;2024-01-07T10:01:08;99256.69;;;-1.38;73.29
76128;BME280;64873;50.102;14.434;2024-01-07T10:03:33;99215.06;;;-1.41;72.79
76128;BME280;64873;50.102;14.434;2024-01-07T10:05:59;99239.00;;;-1.36;72.66
76128;BME280;64873;50.102;14.434;2024-01-07T10:08:24;99222.25;;;-1.52;73.69
76128;BME280;64873;50.102;14.434;2024-01-07T10:10:50;99231.00;;;-1.24;73.73
76128;BME280;64873;50.102;14.434;2024-01-07T10:13:15;99246.97;;;-1.18;72.45
76128;BME280;64873;50.102;14.434;2024-01-07T10:15:41;99249.34;;;-1.24;72.58
76128;BME280;64873;50.102;14.434;2024-01-07T10:18:07;99238.19;;;-1.26;72.80
76128;BME280;64873;50.102;14.434;2024-01-07T10:20:33;99249.50;;;-1.36;71.72
76128;BME280;64873;50.102;14.434;2024-01-07T10:23:02;99226.09;;;-1.56;73.14
76128;BME280;64873;50.102;14.434;2024-01-07T10:25:31;99218.66;;;-1.61;72.06
76128;BME280;64873;50.102;14.434;2024-01-07T10:28:01;99237.94;;;-1.43;72.67
76128;BME280;64873;50.102;14.434;2024-01-07T10:30:27;99229.66;;;-1.48;73.00
76128;BME280;64873;50.102;14.434;2024-01-07T10:32:57;99247.44;;;-1.32;72.60
76128;BME280;64873;50.102;14.434;2024-01-07T10:35:28;99219.75;;;-1.54;72.44
76128;BME280;64873;50.102;14.434;2024-01-07T10:37:54;99267.47;;;-1.41;72.12
76128;BME280;64873;50.102;14.434;2024-01-07T10:40:20;99267.72;;;-1.53;71.19
76128;BME280;64873;50.102;14.434;2024-01-07T10:42:46;99268.28;;;-1.50;70.49
76128;BME280;64873;50.102;14.434;2024-01-07T10:45:12;99256.31;;;-1.52;70.90
76128;BME280;64873;50.102;14.434;2024-01-07T10:47:40;99268.00;;;-1.47;70.87
76128;BME280;64873;50.102;14.434;2024-01-07T10:50:08;99257.25;;;-1.44;70.49
76128;BME280;64873;50.102;14.434;2024-01-07T10:52:39;99263.16;;;-1.32;70.44
76128;BME280;64873;50.102;14.434;2024-01-07T10:55:09;99247.28;;;-1.30;70.41
76128;BME280;64873;50.102;14.434;2024-01-07T10:57:46;99265.47;;;-1.19;70.33
76128;BME280;64873;50.102;14.434;2024-01-07T11:00:16;99275.13;;;-1.29;69.54
76128;BME280;64873;50.102;14.434;2024-01-07T11:03:11;99265.94;;;-1.33;69.19
76128;BME280;64873;50.102;14.434;2024-01-07T11:08:31;99275.03;;;-1.28;68.52
76128;BME280;64873;50.102;14.434;2024-01-07T11:11:12;99268.25;;;-1.30;69.24
76128;BME280;64873;50.102;14.434;2024-01-07T11:13:40;99269.63;;;-1.17;69.18
76128;BME280;64873;50.102;14.434;2024-01-07T11:16:07;99257.25;;;-1.44;69.00
76128;BME280;64873;50.102;14.434;2024-01-07T11:18:54;99248.41;;;-1.43;69.56
76128;BME280;64873;50.102;14.434;2024-01-07T11:21:23;99266.34;;;-1.38;69.05
76128;BME280;64873;50.102;14.434;2024-01-07T11:23:50;99277.13;;;-1.51;69.36
76128;BME280;64873;50.102;14.434;2024-01-07T11:26:17;99275.44;;;-1.32;69.32
76128;BME280;64873;50.102;14.434;2024-01-07T11:28:53;99282.00;;;-1.09;68.80
76128;BME280;64873;50.102;14.434;2024-01-07T11:34:06;99286.59;;;-1.30;68.73
76128;BME280;64873;50.102;14.434;2024-01-07T11:36:37;99261.53;;;-1.43;69.33
76128;BME280;64873;50.102;14.434;2024-01-07T11:39:04;99267.97;;;-1.27;69.65
76128;BME280;64873;50.102;14.434;2024-01-07T11:41:34;99284.84;;;-1.40;67.99
76128;BME280;64873;50.102;14.434;2024-01-07T11:44:01;99277.66;;;-1.47;68.12
76128;BME280;64873;50.102;14.434;2024-01-07T11:46:27;99275.19;;;-1.49;68.43
76128;BME280;64873;50.102;14.434;2024-01-07T11:48:54;99281.28;;;-1.58;68.96
76128;BME280;64873;50.102;14.434;2024-01-07T11:51:28;99278.50;;;-1.56;68.29
76128;BME280;64873;50.102;14.434;2024-01-07T11:53:54;99279.22;;;-1.74;67.85
76128;BME280;64873;50.102;14.434;2024-01-07T11:56:19;99288.72;;;-1.63;68.04
76128;BME280;64873;50.102;14.434;2024-01-07T11:58:45;99272.16;;;-1.73;68.49
76128;BME280;64873;50.102;14.434;2024-01-07T12:01:10;99275.88;;;-1.66;67.42
76128;BME280;64873;50.102;14.434;2024-01-07T12:03:36;99258.66;;;-1.78;68.83
76128;BME280;64873;50.102;14.434;2024-01-07T12:06:03;99256.16;;;-1.70;69.09
76128;BME280;64873;50.102;14.434;2024-01-07T12:08:29;99289.53;;;-1.53;68.56
76128;BME280;64873;50.102;14.434;2024-01-07T12:10:56;99255.63;;;-1.64;68.86
76128;BME280;64873;50.102;14.434;2024-01-07T12:13:21;99279.88;;;-1.62;68.14
76128;BME280;64873;50.102;14.434;2024-01-07T12:15:47;99281.53;;;-1.51;68.40
76128;BME280;64873;50.102;14.434;2024-01-07T12:18:13;99297.25;;;-1.61;68.31
76128;BME280;64873;50.102;14.434;2024-01-07T12:20:40;99285.69;;;-1.78;67.23
76128;BME280;64873;50.102;14.434;2024-01-07T12:23:09;99281.28;;;-1.87;67.95
76128;BME280;64873;50.102;14.434;2024-01-07T12:25:35;99288.84;;;-1.65;68.29
76128;BME280;64873;50.102;14.434;2024-01-07T12:28:01;99288.72;;;-1.63;67.59
76128;BME280;64873;50.102;14.434;2024-01-07T12:30:27;99309.38;;;-1.60;67.57
76128;BME280;64873;50.102;14.434;2024-01-07T12:32:53;99307.31;;;-1.66;67.23
76128;BME280;64873;50.102;14.434;2024-01-07T12:35:18;99296.44;;;-1.52;67.81
76128;BME280;64873;50.102;14.434;2024-01-07T12:37:44;99303.06;;;-1.67;67.25
76128;BME280;64873;50.102;14.434;2024-01-07T12:40:10;99312.00;;;-1.60;67.01
76128;BME280;64873;50.102;14.434;2024-01-07T12:42:40;99297.00;;;-1.68;66.33
76128;BME280;64873;50.102;14.434;2024-01-07T12:45:11;99311.88;;;-1.68;67.02
76128;BME280;64873;50.102;14.434;2024-01-07T12:47:38;99300.56;;;-1.69;66.69
76128;BME280;64873;50.102;14.434;2024-01-07T12:50:04;99326.22;;;-1.72;66.39
76128;BME280;64873;50.102;14.434;2024-01-07T12:52:29;99321.81;;;-1.81;66.13
76128;BME280;64873;50.102;14.434;2024-01-07T12:54:55;99321.38;;;-1.67;66.31